Terminal Aerodrome Forecast
Issued by NWS

Home | Current Version | Previous Version | Text Only | Print | Product List | Glossary On
Versions: 1 2 3 4 5 6 7 8 9 10 11 12 13 14
000
FTUS42 KTBW 192107 AAA
TAFPIE
TAF AMD
KPIE 192107Z 1921/2018 31012KT P6SM BKN035
      TEMPO 1921/1923 BKN020
     FM200200 30005KT P6SM FEW025 SCT250
     FM201200 04007KT P6SM FEW030 SCT250=

USA.gov is the U.S. government's official web portal to all federal, state and local government web resources and services.